Time;durP1;ratioP1;P1;durP2;ratioP2;P2;SDS_P1;SDS_P2;PMS_P1;PMS_P2;Temp;Humidity;BMP_temperature;BMP_pressure;BME280_temperature;BME280_humidity;BME280_pressure;Samples;Min_cycle;Max_cycle;Signal;HPM_P1;HPM_P2
2021/09/25 00:01:20;;;;;;;6.20;2.70;;;;;;;17.60;52.45;99666.50;2395859;80;25625;-81
2021/09/25 00:04:41;;;;;;;9.20;3.25;;;;;;;17.59;52.55;99656.87;2390067;82;30804;-77
2021/09/25 00:08:04;;;;;;;8.48;3.67;;;;;;;17.59;52.60;99660.82;2390229;82;30833;-78
2021/09/25 00:11:28;;;;;;;8.43;3.35;;;;;;;17.57;52.69;99656.88;2389918;82;25761;-77
2021/09/25 00:14:52;;;;;;;9.05;3.55;;;;;;;17.57;52.83;99656.01;2389748;82;25656;-78
2021/09/25 00:18:13;;;;;;;7.80;2.50;;;;;;;17.56;52.95;99659.09;2390504;82;30922;-80
2021/09/25 00:21:34;;;;;;;6.65;3.00;;;;;;;17.56;53.04;99658.23;2387208;82;25518;-77
2021/09/25 00:24:54;;;;;;;13.90;3.67;;;;;;;17.56;53.15;99652.96;2390005;82;31367;-78
2021/09/25 00:28:15;;;;;;;14.60;4.25;;;;;;;17.57;53.24;99654.69;2389614;81;30970;-77
2021/09/25 00:31:36;;;;;;;15.88;3.47;;;;;;;17.58;53.36;99653.78;2390179;82;25778;-77
2021/09/25 00:34:57;;;;;;;8.18;3.08;;;;;;;17.60;53.42;99653.33;2390090;82;25657;-78
2021/09/25 00:38:19;;;;;;;7.55;2.90;;;;;;;17.59;53.59;99648.95;2388537;82;30858;-78
2021/09/25 00:41:40;;;;;;;7.58;2.75;;;;;;;17.60;53.69;99650.69;2388138;82;25642;-78
2021/09/25 00:45:02;;;;;;;6.60;2.22;;;;;;;17.60;53.75;99646.73;2390271;82;25191;-79
2021/09/25 00:48:23;;;;;;;16.17;2.60;;;;;;;17.63;53.85;99650.19;2390103;82;25672;-78
2021/09/25 00:51:44;;;;;;;8.33;3.15;;;;;;;17.67;53.93;99650.55;2390204;82;30832;-76
2021/09/25 00:55:07;;;;;;;9.18;3.00;;;;;;;17.69;53.98;99645.27;2390471;82;26068;-77
2021/09/25 00:58:29;;;;;;;7.47;3.20;;;;;;;17.69;54.08;99644.81;2390379;82;25661;-80
2021/09/25 01:01:50;;;;;;;8.98;2.27;;;;;;;17.72;54.12;99646.54;2390271;82;25645;-79
2021/09/25 01:05:15;;;;;;;6.58;2.62;;;;;;;17.71;54.23;99649.59;2389739;82;25701;-78
2021/09/25 01:08:34;;;;;;;7.80;2.65;;;;;;;17.70;54.37;99642.59;2389990;82;25753;-79
2021/09/25 01:11:56;;;;;;;9.35;2.67;;;;;;;17.70;54.48;99632.50;2389914;82;25701;-76
2021/09/25 01:15:20;;;;;;;6.08;3.00;;;;;;;17.69;54.60;99636.05;2390266;82;25617;-77
2021/09/25 01:18:41;;;;;;;6.75;2.70;;;;;;;17.71;54.66;99636.87;2390410;82;25673;-77
2021/09/25 01:22:04;;;;;;;5.50;2.50;;;;;;;17.73;54.73;99636.86;2390189;82;31369;-77
2021/09/25 01:25:26;;;;;;;8.18;3.15;;;;;;;17.73;54.81;99635.09;2390499;82;25660;-77
2021/09/25 01:28:48;;;;;;;6.90;2.35;;;;;;;17.75;54.92;99636.36;2397316;82;25148;-77
2021/09/25 01:32:09;;;;;;;7.85;2.87;;;;;;;17.74;54.94;99635.50;2373215;82;25173;-82
2021/09/25 01:35:30;;;;;;;5.95;2.70;;;;;;;17.74;55.11;99630.23;2371858;83;25687;-79
2021/09/25 01:38:54;;;;;;;4.15;2.15;;;;;;;17.77;55.22;99626.25;2350436;83;25699;-79
2021/09/25 01:42:15;;;;;;;7.40;2.50;;;;;;;17.78;55.26;99629.76;2373236;83;25566;-77
2021/09/25 01:45:36;;;;;;;6.45;2.45;;;;;;;17.78;55.35;99627.13;2373786;83;31026;-79
2021/09/25 01:48:57;;;;;;;5.55;2.35;;;;;;;17.78;55.45;99633.25;2373606;83;30195;-78
2021/09/25 01:52:18;;;;;;;9.90;2.72;;;;;;;17.79;55.61;99628.88;2373805;83;25621;-78
2021/09/25 01:55:39;;;;;;;4.40;2.25;;;;;;;17.80;55.69;99630.16;2373610;83;25618;-77
2021/09/25 01:59:00;;;;;;;6.10;2.25;;;;;;;17.81;55.80;99634.52;2373679;83;25775;-79
2021/09/25 02:02:21;;;;;;;6.47;2.27;;;;;;;17.85;55.82;99633.59;2373821;83;25689;-77
2021/09/25 02:05:42;;;;;;;5.15;2.45;;;;;;;17.86;55.93;99636.64;2373470;83;31429;-78
2021/09/25 02:09:06;;;;;;;6.95;2.47;;;;;;;17.87;55.99;99630.47;2373474;83;25189;-77
2021/09/25 02:12:26;;;;;;;4.95;2.30;;;;;;;17.88;56.08;99630.88;2373312;83;25665;-77
2021/09/25 02:15:47;;;;;;;6.47;2.30;;;;;;;17.90;56.17;99637.00;2373550;83;30908;-78
2021/09/25 02:19:08;;;;;;;6.78;2.87;;;;;;;17.93;56.24;99633.45;2373609;83;30867;-78
2021/09/25 02:22:29;;;;;;;3.98;2.12;;;;;;;17.92;56.34;99633.00;2373656;83;29403;-79
2021/09/25 02:25:50;;;;;;;5.20;2.50;;;;;;;17.91;56.44;99625.55;2373779;83;25656;-77
2021/09/25 02:29:11;;;;;;;4.78;2.37;;;;;;;17.92;56.49;99629.05;2340962;83;25688;-77
2021/09/25 02:32:32;;;;;;;4.60;2.00;;;;;;;17.92;56.58;99635.22;2362573;83;30901;-78
2021/09/25 02:35:54;;;;;;;4.40;1.98;;;;;;;17.93;56.71;99629.04;2362214;83;25673;-78
2021/09/25 02:39:15;;;;;;;5.08;2.15;;;;;;;17.95;56.75;99623.72;2362127;83;26274;-77
2021/09/25 02:42:37;;;;;;;6.42;1.62;;;;;;;17.97;56.81;99615.34;2362145;83;30869;-78
2021/09/25 02:46:01;;;;;;;4.22;1.60;;;;;;;17.98;56.87;99627.63;2362255;83;25683;-77
2021/09/25 02:49:28;;;;;;;4.87;2.20;;;;;;;18.00;56.92;99627.16;2358735;83;25915;-84
2021/09/25 02:52:49;;;;;;;4.53;1.67;;;;;;;17.99;56.93;99622.80;2356368;83;25957;-77
2021/09/25 02:56:11;;;;;;;7.17;2.35;;;;;;;18.02;57.02;99614.83;2362172;83;25734;-83
2021/09/25 02:59:32;;;;;;;4.45;1.87;;;;;;;18.04;57.04;99618.28;2362098;83;25764;-78
2021/09/25 03:02:53;;;;;;;4.12;1.90;;;;;;;18.05;57.09;99611.23;2361852;83;30825;-81
2021/09/25 03:06:14;;;;;;;6.40;2.05;;;;;;;18.06;57.14;99609.04;2357859;83;31336;-78
2021/09/25 03:09:35;;;;;;;4.45;1.85;;;;;;;18.04;57.21;99598.95;2358121;83;26153;-78
2021/09/25 03:13:08;;;;;;;2.87;2.10;;;;;;;18.07;57.27;99606.81;2359702;83;30860;-77
2021/09/25 03:16:29;;;;;;;3.35;2.33;;;;;;;18.06;57.29;99607.27;2332887;83;25664;-76
2021/09/25 03:19:50;;;;;;;3.08;1.77;;;;;;;18.09;57.33;99610.27;2357569;83;25768;-76
2021/09/25 03:23:11;;;;;;;6.10;2.37;;;;;;;18.09;57.40;99610.27;2360724;83;30876;-77
2021/09/25 03:26:35;;;;;;;3.08;2.00;;;;;;;18.09;57.46;99607.21;2355264;83;25685;-77
2021/09/25 03:29:56;;;;;;;3.00;1.90;;;;;;;18.12;57.50;99604.94;2339161;82;25662;-77
2021/09/25 03:33:20;;;;;;;5.37;2.22;;;;;;;18.11;57.56;99597.48;2334062;83;31278;-77
2021/09/25 03:36:40;;;;;;;4.55;1.95;;;;;;;18.11;57.57;99595.30;2334197;83;25694;-77
2021/09/25 03:40:02;;;;;;;3.30;2.20;;;;;;;18.11;57.62;99610.67;2334857;83;30888;-76
2021/09/25 03:43:23;;;;;;;3.02;1.75;;;;;;;18.13;57.65;99618.57;2340630;84;25734;-78
2021/09/25 03:46:44;;;;;;;3.72;2.10;;;;;;;18.14;57.74;99628.21;2338570;84;31423;-77
2021/09/25 03:50:06;;;;;;;4.67;1.72;;;;;;;18.16;57.72;99635.20;2340275;83;31036;-78
2021/09/25 03:53:27;;;;;;;6.28;1.82;;;;;;;18.17;57.80;99632.11;2340566;84;25650;-76
2021/09/25 03:56:48;;;;;;;3.98;1.85;;;;;;;18.18;57.84;99636.48;2339402;84;30834;-77
2021/09/25 04:00:10;;;;;;;3.67;1.77;;;;;;;18.16;57.84;99639.16;2338945;83;30837;-77
2021/09/25 04:03:31;;;;;;;2.83;1.77;;;;;;;18.18;57.92;99637.34;2340250;83;26361;-77
2021/09/25 04:06:52;;;;;;;3.40;2.17;;;;;;;18.21;57.91;99642.16;2339419;84;31993;-77
2021/09/25 04:10:13;;;;;;;5.30;2.45;;;;;;;18.22;57.93;99643.42;2341356;83;30882;-77
2021/09/25 04:13:34;;;;;;;3.72;1.92;;;;;;;18.21;57.94;99639.52;2341395;84;25134;-78
2021/09/25 04:16:55;;;;;;;4.65;2.42;;;;;;;18.21;58.05;99626.33;2341352;84;30851;-77
2021/09/25 04:20:19;;;;;;;7.53;1.90;;;;;;;18.23;58.07;99629.81;2341608;84;30863;-77
2021/09/25 04:23:40;;;;;;;4.20;2.45;;;;;;;18.25;58.09;99639.88;2341409;83;25694;-76
2021/09/25 04:27:01;;;;;;;2.35;1.82;;;;;;;18.26;58.11;99642.92;2341519;83;25655;-77
2021/09/25 04:30:22;;;;;;;2.87;2.15;;;;;;;18.27;58.14;99639.41;2341574;83;25907;-81
2021/09/25 04:33:43;;;;;;;3.45;2.37;;;;;;;18.29;58.17;99642.44;2341895;84;31437;-77
2021/09/25 04:37:05;;;;;;;8.98;2.65;;;;;;;18.30;58.14;99648.13;2341254;84;25167;-76
2021/09/25 04:40:32;;;;;;;5.05;2.58;;;;;;;18.31;58.19;99642.39;2338486;83;25654;-77
2021/09/25 04:43:52;;;;;;;2.35;1.98;;;;;;;18.31;58.19;99648.99;2340372;83;25566;-78
2021/09/25 04:47:14;;;;;;;3.77;2.50;;;;;;;18.34;58.25;99644.52;2341282;84;30776;-76
2021/09/25 04:50:34;;;;;;;4.12;2.90;;;;;;;18.38;58.18;99642.69;2341508;84;25610;-77
2021/09/25 04:53:56;;;;;;;3.27;2.58;;;;;;;18.38;58.23;99662.48;2341544;84;30980;-76
2021/09/25 04:57:17;;;;;;;3.45;2.47;;;;;;;18.39;58.22;99664.21;2342007;83;25241;-76
2021/09/25 05:00:39;;;;;;;5.00;2.52;;;;;;;18.43;58.25;99662.38;2342184;84;31358;-77
2021/09/25 05:04:01;;;;;;;4.37;2.90;;;;;;;18.43;58.27;99662.38;2341750;82;26186;-76
2021/09/25 05:07:28;;;;;;;3.90;2.83;;;;;;;18.43;58.27;99672.52;2338965;83;25739;-76
2021/09/25 05:10:49;;;;;;;2.98;2.50;;;;;;;18.42;58.31;99673.39;2339407;84;26264;-77
2021/09/25 05:14:10;;;;;;;4.87;2.97;;;;;;;18.47;58.34;99681.23;2340756;84;30897;-75
2021/09/25 05:17:30;;;;;;;3.42;2.50;;;;;;;18.50;58.34;99676.77;2341248;84;25729;-80
2021/09/25 05:20:52;;;;;;;5.37;3.00;;;;;;;18.54;58.33;99669.66;2336428;84;25651;-78
2021/09/25 05:24:13;;;;;;;6.22;2.70;;;;;;;18.58;58.34;99679.23;2337619;83;25581;-78
2021/09/25 05:27:34;;;;;;;4.60;3.52;;;;;;;18.62;58.37;99669.89;2339867;83;31444;-77
2021/09/25 05:30:58;;;;;;;4.37;3.25;;;;;;;18.67;58.32;99668.50;2340316;84;25546;-81
2021/09/25 05:34:19;;;;;;;3.85;2.92;;;;;;;18.72;58.34;99667.11;2341197;82;25673;-81
2021/09/25 05:37:40;;;;;;;4.58;3.33;;;;;;;18.82;58.28;99680.53;2341590;84;30785;-77
2021/09/25 05:41:01;;;;;;;3.87;2.85;;;;;;;18.88;58.17;99675.98;2341712;83;25662;-77
2021/09/25 05:44:22;;;;;;;7.07;2.97;;;;;;;18.95;58.14;99676.72;2341215;84;31430;-80
2021/09/25 05:47:44;;;;;;;6.92;3.08;;;;;;;19.02;58.10;99684.06;2341421;83;25191;-78
2021/09/25 05:51:10;;;;;;;3.37;2.75;;;;;;;19.07;58.01;99675.59;2341354;83;25666;-78
2021/09/25 05:54:33;;;;;;;4.30;3.37;;;;;;;19.10;57.95;99680.78;2341423;84;25773;-79
2021/09/25 05:57:58;;;;;;;4.05;3.20;;;;;;;19.14;57.96;99678.52;2341949;83;25692;-77
2021/09/25 06:01:17;;;;;;;3.15;2.85;;;;;;;19.14;57.86;99683.80;2341283;84;25675;-77
2021/09/25 06:04:38;;;;;;;9.05;3.40;;;;;;;19.14;57.90;99689.09;2342103;82;31406;-77
2021/09/25 06:08:01;;;;;;;7.00;3.10;;;;;;;19.15;57.91;99693.45;2341525;84;25671;-77
2021/09/25 06:11:22;;;;;;;3.45;3.00;;;;;;;19.14;57.98;99694.83;2340039;83;26390;-81
2021/09/25 06:14:46;;;;;;;4.30;3.40;;;;;;;19.15;57.98;99697.42;2341254;84;30922;-82
2021/09/25 06:18:07;;;;;;;3.87;2.98;;;;;;;19.18;58.04;99700.00;2340102;83;25896;-78
2021/09/25 06:21:28;;;;;;;4.85;4.08;;;;;;;19.21;58.01;99696.42;2341587;84;25594;-77
2021/09/25 06:24:50;;;;;;;3.58;2.98;;;;;;;19.22;58.03;99706.94;2341840;83;25654;-78
2021/09/25 06:28:11;;;;;;;4.55;3.33;;;;;;;19.24;58.04;99690.61;2341044;83;25770;-78
2021/09/25 06:31:33;;;;;;;4.92;3.60;;;;;;;19.30;58.10;99700.16;2336287;84;25820;-79
2021/09/25 06:34:54;;;;;;;3.92;3.42;;;;;;;19.34;58.03;99710.64;2331971;82;25989;-78
2021/09/25 06:38:15;;;;;;;5.65;3.90;;;;;;;19.40;58.05;99706.10;2336900;84;25891;-79
2021/09/25 06:41:37;;;;;;;6.75;3.30;;;;;;;19.44;58.03;99699.41;2340558;84;25706;-78
2021/09/25 06:45:19;;;;;;;4.75;3.20;;;;;;;19.52;58.10;99715.08;2337079;84;25709;-83
2021/09/25 06:48:44;;;;;;;6.75;3.30;;;;;;;19.59;58.07;99712.70;2340134;84;25601;-79
2021/09/25 06:52:05;;;;;;;5.05;3.33;;;;;;;19.65;57.90;99707.77;2339333;83;25722;-77
2021/09/25 06:55:27;;;;;;;4.45;3.72;;;;;;;19.69;57.82;99710.28;2338362;83;26195;-78
2021/09/25 06:58:48;;;;;;;4.62;3.70;;;;;;;19.74;57.81;99708.83;2340061;84;25788;-83
2021/09/25 07:02:12;;;;;;;7.67;3.65;;;;;;;19.78;57.81;99710.52;2339717;83;25712;-80
2021/09/25 07:05:33;;;;;;;7.55;4.30;;;;;;;19.86;57.73;99707.68;2340241;82;25711;-79
2021/09/25 07:08:54;;;;;;;7.25;4.20;;;;;;;19.93;57.67;99714.55;2340489;84;25363;-78
2021/09/25 07:12:15;;;;;;;3.65;3.35;;;;;;;19.93;57.61;99715.41;2355850;82;25749;-83
2021/09/25 07:15:36;;;;;;;6.08;3.98;;;;;;;19.96;57.63;99720.63;2313055;85;25858;-77
2021/09/25 07:18:57;;;;;;;7.15;4.28;;;;;;;19.98;57.59;99728.52;2358717;82;25670;-78
2021/09/25 07:22:18;;;;;;;4.28;3.87;;;;;;;19.98;57.64;99732.05;2322267;84;25734;-79
2021/09/25 07:25:41;;;;;;;5.25;4.22;;;;;;;19.99;57.66;99730.27;2362785;82;25804;-80
2021/09/25 07:29:05;;;;;;;5.10;3.98;;;;;;;19.97;57.65;99724.14;2316191;82;25742;-82
2021/09/25 07:32:27;;;;;;;7.80;3.70;;;;;;;19.98;57.71;99731.16;2337204;83;25669;-79
2021/09/25 07:35:48;;;;;;;4.72;4.30;;;;;;;19.99;57.79;99737.75;2395926;80;25948;-80
2021/09/25 07:39:11;;;;;;;4.53;4.20;;;;;;;20.01;57.79;99736.38;2399513;80;25641;-79
2021/09/25 07:42:39;;;;;;;7.12;4.62;;;;;;;20.05;57.78;99736.73;2387913;82;26259;-85
2021/09/25 07:46:08;;;;;;;5.47;4.65;;;;;;;20.05;57.81;99738.92;2375479;82;25686;-83
2021/09/25 07:49:29;;;;;;;9.33;4.50;;;;;;;20.17;57.84;99735.08;2416845;80;25678;-78
2021/09/25 07:52:50;;;;;;;5.28;4.22;;;;;;;20.27;57.78;99737.03;2420191;80;25516;-82
2021/09/25 07:56:14;;;;;;;5.85;4.50;;;;;;;20.34;57.78;99747.88;2404546;80;25733;-80
2021/09/25 07:59:42;;;;;;;6.22;4.47;;;;;;;20.40;57.73;99746.39;2399998;81;25765;-85
2021/09/25 08:03:05;;;;;;;5.78;4.72;;;;;;;20.43;57.72;99754.71;2377360;82;25614;-78
2021/09/25 08:06:37;;;;;;;6.08;4.67;;;;;;;20.44;57.63;99755.11;2393242;82;25729;-80
2021/09/25 08:09:58;;;;;;;4.85;4.40;;;;;;;20.50;57.64;99758.93;2388704;81;25806;-84
2021/09/25 08:13:19;;;;;;;6.58;4.55;;;;;;;20.52;57.61;99767.75;2392990;82;25719;-78
2021/09/25 08:16:40;;;;;;;5.25;4.75;;;;;;;20.54;57.66;99771.66;2397538;82;25717;-78
2021/09/25 08:20:16;;;;;;;6.28;4.35;;;;;;;20.57;57.62;99766.28;2391419;82;25703;-78
2021/09/25 08:24:10;;;;;;;5.10;4.60;;;;;;;20.59;57.60;99778.58;2311157;83;25834;-79
2021/09/25 08:27:31;;;;;;;4.93;4.43;;;;;;;20.59;57.71;99773.29;2265227;86;25729;-84
2021/09/25 08:34:20;;;;;;;7.20;5.20;;;;;;;20.60;57.76;99782.09;2206308;88;26010;-85
2021/09/25 08:37:41;;;;;;;5.70;4.67;;;;;;;20.62;57.79;99790.42;2225843;87;25334;-78
2021/09/25 08:41:02;;;;;;;6.75;4.58;;;;;;;20.64;57.90;99785.93;2228617;88;25335;-85
2021/09/25 08:44:28;;;;;;;7.58;5.08;;;;;;;20.64;57.87;99784.61;2228508;88;26014;-81
2021/09/25 08:47:49;;;;;;;5.00;4.50;;;;;;;20.63;57.91;99791.28;2227771;88;25759;-81
2021/09/25 08:51:11;;;;;;;5.72;5.20;;;;;;;20.61;57.94;99789.98;2222797;87;25988;-78
2021/09/25 08:54:32;;;;;;;6.00;4.62;;;;;;;20.61;58.04;99791.31;2237708;87;25812;-79
2021/09/25 08:57:53;;;;;;;7.33;4.20;;;;;;;20.61;58.03;99795.73;2240039;88;25810;-80
2021/09/25 09:01:20;;;;;;;5.87;4.55;;;;;;;20.60;58.18;99796.20;2290317;85;25795;-83
2021/09/25 09:04:54;;;;;;;4.37;3.98;;;;;;;20.59;58.22;99797.58;2305083;85;25898;-82
2021/09/25 09:08:15;;;;;;;5.50;4.80;;;;;;;20.60;58.37;99794.87;2305482;85;25742;-83
2021/09/25 09:11:43;;;;;;;11.50;6.97;;;;;;;20.64;58.44;99801.83;2353389;82;25875;-82
2021/09/25 09:15:05;;;;;;;10.40;8.65;;;;;;;20.62;59.53;99797.47;2392638;82;25571;-81
2021/09/25 09:18:26;;;;;;;12.65;8.68;;;;;;;20.51;59.73;99804.38;2392170;82;25791;-82
2021/09/25 09:21:49;;;;;;;10.13;8.58;;;;;;;20.30;60.37;99797.84;2351577;83;25282;-82
2021/09/25 09:25:10;;;;;;;8.80;8.10;;;;;;;20.24;60.50;99796.20;2391482;82;25624;-84
2021/09/25 09:28:35;;;;;;;12.53;8.98;;;;;;;20.20;61.31;99798.98;2370561;83;25758;-83
2021/09/25 09:31:56;;;;;;;9.10;8.25;;;;;;;20.10;61.38;99791.72;2391957;81;25791;-83
2021/09/25 09:35:19;;;;;;;8.95;8.05;;;;;;;19.92;61.53;99796.16;2347606;83;25638;-83
2021/09/25 09:38:56;;;;;;;9.23;8.43;;;;;;;19.85;62.25;99798.08;2375334;81;25851;-84
2021/09/25 09:42:09;;;;;;;9.68;8.55;;;;;;;19.87;62.97;99803.31;2372873;81;26066;-84
2021/09/25 09:45:31;;;;;;;8.95;8.18;;;;;;;19.73;62.52;99803.17;2386707;82;25787;-84
2021/09/25 09:48:55;;;;;;;12.25;8.60;;;;;;;19.84;63.60;99812.64;2386647;81;25669;-87
2021/09/25 09:52:15;;;;;;;9.60;8.63;;;;;;;19.87;63.17;99805.50;2390428;81;25930;-86
2021/09/25 09:55:37;;;;;;;11.50;9.08;;;;;;;19.90;63.58;99805.43;2405794;81;25767;-86
2021/09/25 09:59:04;;;;;;;9.30;7.67;;;;;;;20.03;63.26;99811.30;2401354;82;26000;-86
2021/09/25 10:02:29;;;;;;;10.80;8.88;;;;;;;20.11;63.68;99809.33;2397039;81;25816;-87
2021/09/25 10:05:52;;;;;;;7.60;6.87;;;;;;;20.08;63.40;99814.72;2397890;81;25700;-84
2021/09/25 10:09:18;;;;;;;7.90;7.20;;;;;;;20.21;63.52;99814.80;2396401;81;25705;-85
2021/09/25 10:12:40;;;;;;;8.18;7.37;;;;;;;20.31;63.41;99812.80;2355793;82;25749;-84
2021/09/25 10:16:02;;;;;;;10.18;6.95;;;;;;;20.21;63.30;99811.30;2344310;84;25739;-85
2021/09/25 10:19:27;;;;;;;11.45;10.30;;;;;;;20.28;63.75;99820.39;2343355;84;26358;-83
2021/09/25 10:22:48;;;;;;;10.05;7.85;;;;;;;20.47;63.27;99814.61;2344547;82;25901;-88
2021/09/25 10:26:10;;;;;;;7.90;6.78;;;;;;;20.54;62.95;99810.06;2344254;84;25694;-84
2021/09/25 10:29:32;;;;;;;7.35;6.58;;;;;;;20.47;63.12;99815.48;2382069;82;25761;-82
2021/09/25 10:32:52;;;;;;;8.50;7.70;;;;;;;20.51;63.13;99815.84;2386113;82;25774;-84
2021/09/25 10:36:19;;;;;;;7.40;6.72;;;;;;;21.06;63.33;99818.79;2386214;82;25753;-83
2021/09/25 10:39:40;;;;;;;7.20;6.42;;;;;;;21.47;62.54;99819.39;2375416;82;25633;-84
2021/09/25 10:43:15;;;;;;;6.83;6.22;;;;;;;21.77;61.74;99821.99;2371006;82;25696;-84
2021/09/25 10:46:40;;;;;;;7.33;6.45;;;;;;;21.88;61.28;99829.18;2383007;82;25951;-83
2021/09/25 10:50:01;;;;;;;6.67;6.00;;;;;;;21.99;61.08;99823.52;2356714;82;26138;-84
2021/09/25 10:53:27;;;;;;;8.60;5.90;;;;;;;22.10;60.23;99827.55;2380087;82;25886;-85
2021/09/25 10:56:48;;;;;;;7.20;5.55;;;;;;;21.96;59.51;99824.48;2385652;82;25519;-83
2021/09/25 11:00:24;;;;;;;8.85;6.20;;;;;;;21.78;59.71;99829.06;2385962;82;25639;-84
2021/09/25 11:03:54;;;;;;;5.30;4.90;;;;;;;21.67;59.39;99821.44;2386685;82;25729;-77
2021/09/25 11:07:27;;;;;;;7.58;3.83;;;;;;;21.67;60.27;99827.61;2386489;82;26344;-76
2021/09/25 11:11:14;;;;;;;4.65;4.22;;;;;;;21.91;60.22;99825.11;2380470;81;25619;-73
2021/09/25 11:14:47;;;;;;;4.58;3.80;;;;;;;22.26;59.98;99825.30;2386675;82;25631;-74
2021/09/25 11:18:27;;;;;;;7.95;5.05;;;;;;;22.56;59.46;99837.15;2385912;82;25633;-75
2021/09/25 11:22:00;;;;;;;5.40;4.15;;;;;;;22.63;59.03;99831.56;2386374;82;25614;-76
2021/09/25 11:25:24;;;;;;;4.35;3.95;;;;;;;22.67;58.75;99825.67;2386610;82;43689;-77
2021/09/25 11:28:46;;;;;;;4.05;3.42;;;;;;;22.76;58.62;99837.79;2386394;82;25631;-73
2021/09/25 11:32:08;;;;;;;3.65;3.33;;;;;;;22.81;58.35;99838.48;2366408;82;25596;-73
2021/09/25 11:35:34;;;;;;;4.67;3.52;;;;;;;22.82;58.00;99844.22;2387945;82;25708;-72
2021/09/25 11:38:56;;;;;;;4.53;4.08;;;;;;;22.80;57.87;99848.25;2387848;82;25682;-75
2021/09/25 11:42:27;;;;;;;7.60;3.30;;;;;;;22.83;57.80;99845.48;2388012;82;25610;-73
2021/09/25 11:45:52;;;;;;;3.10;2.77;;;;;;;22.94;57.66;99855.77;2387845;82;25705;-78
2021/09/25 11:49:13;;;;;;;3.27;2.90;;;;;;;23.02;57.48;99852.39;2387463;82;25695;-74
2021/09/25 11:52:35;;;;;;;3.47;3.17;;;;;;;23.04;57.15;99846.53;2387381;82;25657;-76
2021/09/25 11:55:58;;;;;;;3.00;2.70;;;;;;;23.14;56.98;99851.52;2389378;81;25875;-84
2021/09/25 11:59:25;;;;;;;3.20;2.27;;;;;;;23.24;56.79;99848.47;2353004;83;25766;-74
2021/09/25 12:02:48;;;;;;;2.37;2.17;;;;;;;23.31;56.61;99851.77;2352761;84;25572;-76
2021/09/25 12:06:09;;;;;;;2.85;2.60;;;;;;;23.36;56.38;99852.48;2357245;82;25637;-74
2021/09/25 12:09:47;;;;;;;3.67;3.10;;;;;;;23.31;56.13;99852.62;2358925;82;25668;-74
2021/09/25 12:13:27;;;;;;;5.42;1.95;;;;;;;23.25;56.02;99848.89;2359309;83;26030;-73
2021/09/25 12:16:59;;;;;;;2.35;1.80;;;;;;;23.16;55.88;99869.63;2359090;83;25703;-76
2021/09/25 12:20:23;;;;;;;3.77;2.95;;;;;;;23.00;55.88;99864.85;2358659;83;26232;-73
2021/09/25 12:23:58;;;;;;;2.75;2.50;;;;;;;22.90;55.98;99872.71;2359208;83;25711;-73
2021/09/25 12:27:27;;;;;;;3.15;2.85;;;;;;;22.86;56.03;99879.06;2359309;83;25585;-73
2021/09/25 12:30:48;;;;;;;3.47;2.60;;;;;;;22.78;56.05;99882.44;2361702;83;25658;-73
2021/09/25 12:34:21;;;;;;;5.08;2.55;;;;;;;22.72;56.10;99886.66;2435711;81;25728;-73
2021/09/25 12:37:49;;;;;;;2.40;2.15;;;;;;;22.68;56.00;99887.22;2435120;81;25625;-77
2021/09/25 12:41:21;;;;;;;3.55;2.42;;;;;;;22.63;56.17;99884.70;2435876;81;25704;-73
2021/09/25 12:44:42;;;;;;;2.90;2.58;;;;;;;22.56;56.21;99884.50;2434155;81;25656;-73
2021/09/25 12:48:15;;;;;;;3.42;2.35;;;;;;;22.52;56.28;99892.17;2434986;81;25724;-74
2021/09/25 12:51:41;;;;;;;3.83;2.77;;;;;;;22.51;56.34;99911.70;2431875;80;25681;-90
2021/09/25 12:55:08;;;;;;;4.25;2.55;;;;;;;22.47;56.48;99910.50;2416315;80;25937;-74
2021/09/25 12:58:29;;;;;;;3.20;2.90;;;;;;;22.49;56.52;99911.33;2423287;79;25731;-78
2021/09/25 13:01:57;;;;;;;4.75;2.55;;;;;;;22.50;56.42;99917.91;2427763;80;25877;-73
2021/09/25 13:06:22;;;;;;;7.65;2.65;;;;;;;22.56;56.51;99917.71;2493342;76;26338;-74
2021/09/25 13:09:51;;;;;;;4.40;2.12;;;;;;;22.53;56.51;99923.13;2437636;79;25576;-81
2021/09/25 13:13:19;;;;;;;4.75;2.52;;;;;;;22.50;56.49;99921.89;2420193;81;25617;-75
2021/09/25 13:16:42;;;;;;;4.28;2.35;;;;;;;22.49;56.62;99927.27;2418685;80;31258;-74
2021/09/25 13:20:06;;;;;;;3.22;2.92;;;;;;;22.49;56.61;99932.58;2432320;81;25675;-77
2021/09/25 13:23:28;;;;;;;3.33;3.00;;;;;;;22.47;56.69;99920.66;2442230;79;26010;-73
2021/09/25 13:26:49;;;;;;;3.27;2.42;;;;;;;22.47;56.76;99921.98;2442119;80;25640;-84
2021/09/25 13:30:11;;;;;;;3.15;2.85;;;;;;;22.51;56.69;99928.06;2441941;79;25633;-80
2021/09/25 13:33:32;;;;;;;3.02;2.80;;;;;;;22.52;56.67;99929.83;2441922;79;26310;-77
2021/09/25 13:36:53;;;;;;;8.38;2.62;;;;;;;22.48;56.67;99921.56;2414082;80;25820;-74
2021/09/25 13:40:14;;;;;;;3.00;2.70;;;;;;;22.46;56.74;99927.37;2422612;81;25683;-80
2021/09/25 13:43:35;;;;;;;5.10;3.27;;;;;;;22.48;56.76;99930.39;2441960;80;25643;-79
2021/09/25 13:46:56;;;;;;;5.17;2.92;;;;;;;22.46;56.71;99937.53;2432668;80;25599;-76
2021/09/25 13:50:17;;;;;;;3.70;2.90;;;;;;;22.57;56.84;99937.17;2442045;81;25828;-75
2021/09/25 13:53:38;;;;;;;4.17;2.92;;;;;;;22.65;56.89;99952.42;2435802;80;25852;-84
2021/09/25 13:57:09;;;;;;;4.95;3.42;;;;;;;22.66;56.64;99949.30;2429572;81;25196;-74
2021/09/25 14:00:30;;;;;;;3.65;2.72;;;;;;;22.69;56.72;99944.75;2426041;81;25343;-73
2021/09/25 14:03:51;;;;;;;3.20;2.77;;;;;;;22.74;56.57;99949.44;2397671;81;26232;-74
2021/09/25 14:07:12;;;;;;;4.17;2.42;;;;;;;22.76;56.50;99960.03;2417043;79;25583;-83
2021/09/25 14:10:34;;;;;;;2.00;1.90;;;;;;;22.76;56.40;99963.55;2420588;80;25674;-74
2021/09/25 14:13:55;;;;;;;3.30;2.33;;;;;;;22.77;56.40;99959.10;2431968;81;25573;-77
2021/09/25 14:17:16;;;;;;;5.30;2.08;;;;;;;22.78;56.48;99961.73;2441244;81;25600;-74
2021/09/25 14:20:41;;;;;;;3.27;2.35;;;;;;;22.79;56.60;99963.92;2437922;80;25802;-75
2021/09/25 14:24:05;;;;;;;3.35;2.22;;;;;;;22.77;56.67;99958.63;2433260;80;26486;-74
2021/09/25 14:27:30;;;;;;;4.58;2.90;;;;;;;22.79;57.07;99974.55;2429356;80;25738;-74
2021/09/25 14:30:51;;;;;;;5.78;2.30;;;;;;;22.80;57.00;99970.96;2431973;79;25661;-75
2021/09/25 14:34:12;;;;;;;6.60;2.35;;;;;;;22.84;57.01;99965.95;2436056;79;25597;-74
2021/09/25 14:37:34;;;;;;;2.98;2.62;;;;;;;22.83;56.96;99970.40;2438127;81;25636;-77
2021/09/25 14:40:55;;;;;;;2.60;2.33;;;;;;;22.83;56.88;99981.49;2438133;81;25665;-80
2021/09/25 14:44:16;;;;;;;3.75;2.72;;;;;;;22.82;56.94;99983.75;2434212;80;25641;-75
2021/09/25 14:47:42;;;;;;;5.30;2.60;;;;;;;22.78;56.77;99980.33;2431497;80;26129;-83
2021/09/25 14:51:04;;;;;;;3.08;2.45;;;;;;;22.70;56.76;99982.35;2437198;81;25714;-74
2021/09/25 14:54:28;;;;;;;4.12;2.45;;;;;;;22.66;56.88;99988.69;2438661;81;26294;-74
2021/09/25 14:57:50;;;;;;;2.58;2.37;;;;;;;22.63;56.69;99996.30;2404074;79;25692;-82
2021/09/25 15:01:12;;;;;;;8.70;2.50;;;;;;;22.56;56.62;99992.56;2408673;80;25640;-79
2021/09/25 15:04:33;;;;;;;1.98;1.75;;;;;;;22.49;56.74;99990.55;2421749;79;25696;-83
2021/09/25 15:07:54;;;;;;;3.12;2.30;;;;;;;22.46;56.69;99994.64;2454482;80;25548;-75
2021/09/25 15:11:19;;;;;;;6.80;2.30;;;;;;;22.40;56.64;99998.34;2438271;81;25726;-74
2021/09/25 15:14:43;;;;;;;2.92;2.02;;;;;;;22.37;56.57;100001.55;2410297;79;26287;-76
2021/09/25 15:18:04;;;;;;;3.17;2.25;;;;;;;22.31;56.63;99997.78;2414338;81;25777;-74
2021/09/25 15:21:26;;;;;;;3.08;2.65;;;;;;;22.28;56.72;100009.36;2410536;80;25734;-74
2021/09/25 15:24:47;;;;;;;3.08;2.42;;;;;;;22.25;56.72;100019.21;2434140;81;25890;-73
2021/09/25 15:28:15;;;;;;;6.00;2.83;;;;;;;22.23;56.73;100016.58;2427754;81;26143;-74
2021/09/25 15:31:36;;;;;;;3.05;1.98;;;;;;;22.20;56.77;100018.46;2428697;79;25640;-78
2021/09/25 15:35:11;;;;;;;3.50;2.27;;;;;;;22.19;56.80;100030.87;2416971;80;25612;-84
2021/09/25 15:38:52;;;;;;;6.08;2.90;;;;;;;22.16;56.87;100038.47;2412186;81;26397;-75
2021/09/25 15:42:13;;;;;;;5.60;2.77;;;;;;;22.12;56.86;100043.42;2434550;79;25827;-74
2021/09/25 15:45:34;;;;;;;3.58;3.08;;;;;;;22.10;56.87;100043.91;2469429;78;25689;-73
2021/09/25 15:48:55;;;;;;;5.17;2.50;;;;;;;22.07;56.90;100047.12;2482644;79;25809;-73
2021/09/25 15:52:19;;;;;;;2.70;2.50;;;;;;;22.03;57.03;100045.02;2481393;79;26330;-74
2021/09/25 15:55:40;;;;;;;5.12;2.47;;;;;;;21.98;57.08;100053.58;2467524;79;25643;-73
2021/09/25 15:59:01;;;;;;;3.22;2.92;;;;;;;21.96;57.12;100050.09;2440425;79;25665;-85